Havelock, North Carolina
Current Conditions -  °F | °C
As of 4:54 AM on Thursday 23 Oct 2014 (Local Time) from KNKT Reporting Station
Clear Clear  
Wind Chill: 50°   Ceiling: Unl
Heat Index: 50°   Visibility: 10mi
Dew Point: 45°   Wind: 12mph
Humidity: 83%   Direction: 280°W
Pressure: 29.98"   Gusts: NA
Location:  34.88°N, 76.9°W
Report Text: KNKT 230854Z 28010KT 10SM CLR 10/07 A2998 RMK AO2 SLP148 T01000072 55004 $
Loading
Personal Weather Stations






























Interactive Weather Map
Tropical Storm Tracking
New forecast layout! Learn more

10-Day Weather Forecast

Advertisements
Track Severe Weather on mobile